Time;durP1;ratioP1;P1;durP2;ratioP2;P2;SDS_P1;SDS_P2;PMS_P1;PMS_P2;Temp;Humidity;BMP_temperature;BMP_pressure;BME280_temperature;BME280_humidity;BME280_pressure;Samples;Min_cycle;Max_cycle;Signal;HPM_P1;HPM_P2
2022/01/20 00:00:15;;;;;;;22.87;7.03;;;;;;;;;;2064731;28;20538;-61
2022/01/20 00:01:40;;;;;;;19.87;6.70;;;;;;;;;;2062714;28;20162;-62
2022/01/20 00:02:39;;;;;;;23.83;6.33;;;;;;;;;;2057820;28;20185;-62
2022/01/20 00:03:41;;;;;;;26.13;6.67;;;;;;;;;;2063491;28;20585;-61
2022/01/20 00:04:49;;;;;;;28.80;8.77;;;;;;;;;;2066147;28;20174;-61
2022/01/20 00:27:09;;;;;;;26.57;6.30;;;;;;;;;;2060848;28;20182;-61
2022/01/20 00:28:14;;;;;;;21.87;5.87;;;;;;;;;;2057496;28;20200;-60
2022/01/20 00:29:22;;;;;;;20.60;6.00;;;;;;;;;;2058834;28;20498;-62
2022/01/20 00:31:37;;;;;;;22.80;5.83;;;;;;;;;;2048078;28;20226;-61
2022/01/20 00:33:42;;;;;;;16.00;5.90;;;;;;;;;;2060396;28;20185;-63
2022/01/20 00:35:18;;;;;;;20.80;5.83;;;;;;;;;;2062322;28;20201;-63
2022/01/20 00:37:37;;;;;;;19.73;5.83;;;;;;;;;;2059905;28;20205;-63
2022/01/20 00:38:38;;;;;;;21.80;5.67;;;;;;;;;;2064708;28;20176;-62
2022/01/20 00:39:39;;;;;;;23.40;6.83;;;;;;;;;;2057306;28;20189;-62
2022/01/20 00:40:39;;;;;;;15.00;5.67;;;;;;;;;;2056758;28;20185;-63
2022/01/20 00:41:39;;;;;;;20.57;6.10;;;;;;;;;;2056259;28;20551;-61
2022/01/20 00:42:39;;;;;;;21.37;7.07;;;;;;;;;;2064865;28;20179;-61
2022/01/20 00:43:40;;;;;;;20.87;6.80;;;;;;;;;;2058748;28;20403;-61
2022/01/20 00:44:44;;;;;;;18.63;5.37;;;;;;;;;;2065249;28;20248;-61
2022/01/20 00:45:47;;;;;;;18.90;5.57;;;;;;;;;;2064734;28;20631;-63
2022/01/20 00:46:47;;;;;;;19.30;5.60;;;;;;;;;;2064903;28;20501;-62
2022/01/20 00:47:48;;;;;;;27.37;6.90;;;;;;;;;;2065242;28;20617;-63
2022/01/20 00:48:48;;;;;;;20.00;4.97;;;;;;;;;;2065139;28;20837;-61
2022/01/20 00:49:49;;;;;;;15.07;5.97;;;;;;;;;;2057042;28;20186;-61
2022/01/20 00:50:49;;;;;;;17.87;5.80;;;;;;;;;;2064497;28;20181;-62
2022/01/20 00:51:49;;;;;;;30.17;7.03;;;;;;;;;;2059151;28;20194;-62
2022/01/20 00:52:50;;;;;;;22.37;5.23;;;;;;;;;;2066256;28;20418;-62
2022/01/20 00:53:51;;;;;;;22.50;6.30;;;;;;;;;;2064543;28;20205;-62
2022/01/20 00:54:51;;;;;;;20.47;5.60;;;;;;;;;;2057147;28;20189;-62
2022/01/20 00:55:52;;;;;;;25.33;6.63;;;;;;;;;;2055614;28;20180;-61
2022/01/20 00:56:52;;;;;;;19.20;6.40;;;;;;;;;;2063786;28;20245;-63
2022/01/20 00:57:52;;;;;;;15.40;7.13;;;;;;;;;;2059409;28;20225;-62
2022/01/20 00:58:52;;;;;;;13.97;5.53;;;;;;;;;;2065063;28;20688;-62
2022/01/20 00:59:53;;;;;;;19.67;6.20;;;;;;;;;;2064874;28;20178;-62
2022/01/20 01:00:54;;;;;;;24.00;5.43;;;;;;;;;;2066293;28;20220;-61
2022/01/20 01:01:55;;;;;;;12.67;5.10;;;;;;;;;;2066065;28;20541;-61
2022/01/20 01:02:56;;;;;;;18.73;5.83;;;;;;;;;;2065264;28;20192;-61
2022/01/20 01:03:57;;;;;;;18.50;6.17;;;;;;;;;;2065225;28;20181;-61
2022/01/20 01:04:57;;;;;;;19.63;5.40;;;;;;;;;;2065963;28;20181;-60
2022/01/20 01:06:12;;;;;;;18.97;5.73;;;;;;;;;;2065148;28;20670;-61
2022/01/20 01:07:36;;;;;;;22.70;5.90;;;;;;;;;;2062575;28;20189;-61
2022/01/20 01:08:37;;;;;;;24.03;6.07;;;;;;;;;;2065173;28;20189;-61
2022/01/20 01:09:39;;;;;;;16.97;4.70;;;;;;;;;;2057304;28;20197;-61
2022/01/20 01:10:41;;;;;;;12.93;5.53;;;;;;;;;;2065047;28;20177;-60
2022/01/20 01:11:44;;;;;;;15.00;6.20;;;;;;;;;;2065816;28;20174;-60
2022/01/20 01:12:51;;;;;;;18.53;5.00;;;;;;;;;;2060376;28;20204;-61
2022/01/20 01:13:53;;;;;;;21.00;5.10;;;;;;;;;;2065549;28;20178;-61
2022/01/20 01:14:54;;;;;;;18.10;6.40;;;;;;;;;;2064179;28;20185;-61
2022/01/20 01:15:54;;;;;;;15.87;6.50;;;;;;;;;;2057126;28;20240;-61
2022/01/20 01:21:06;;;;;;;18.57;5.10;;;;;;;;;;2055896;28;20202;-61
2022/01/20 01:22:20;;;;;;;13.23;4.10;;;;;;;;;;2057461;28;20264;-62
2022/01/20 01:23:21;;;;;;;17.17;5.03;;;;;;;;;;2060456;28;20185;-62
2022/01/20 01:24:21;;;;;;;13.73;4.70;;;;;;;;;;2057160;28;20178;-63
2022/01/20 01:25:22;;;;;;;15.03;4.17;;;;;;;;;;2064832;28;20256;-62
2022/01/20 01:26:25;;;;;;;16.60;5.03;;;;;;;;;;2056529;28;20691;-60
2022/01/20 01:27:27;;;;;;;16.30;5.30;;;;;;;;;;2057291;28;20185;-61
2022/01/20 01:28:30;;;;;;;19.33;5.60;;;;;;;;;;2058636;28;20170;-61
2022/01/20 01:29:59;;;;;;;13.07;4.30;;;;;;;;;;2057133;28;20186;-61
2022/01/20 01:31:07;;;;;;;13.20;4.80;;;;;;;;;;2059655;28;20174;-62
2022/01/20 01:32:11;;;;;;;9.97;5.00;;;;;;;;;;2065480;28;20189;-61
2022/01/20 01:33:12;;;;;;;22.13;5.43;;;;;;;;;;2064934;28;20193;-62
2022/01/20 01:34:14;;;;;;;22.83;5.70;;;;;;;;;;2064580;28;20185;-62
2022/01/20 01:35:16;;;;;;;10.93;4.80;;;;;;;;;;2064854;28;20315;-63
2022/01/20 01:36:20;;;;;;;12.90;4.43;;;;;;;;;;2057464;28;20307;-61
2022/01/20 01:38:36;;;;;;;20.30;4.87;;;;;;;;;;2063042;28;20224;-61
2022/01/20 01:39:36;;;;;;;20.03;5.67;;;;;;;;;;2057817;28;20749;-61
2022/01/20 01:40:38;;;;;;;17.80;5.17;;;;;;;;;;2057256;28;20225;-63
2022/01/20 01:41:38;;;;;;;20.80;4.90;;;;;;;;;;2064528;28;20216;-61
2022/01/20 01:42:48;;;;;;;14.57;5.23;;;;;;;;;;2056955;28;20178;-63
2022/01/20 01:43:50;;;;;;;11.50;4.17;;;;;;;;;;2057632;28;20166;-63
2022/01/20 01:44:52;;;;;;;14.20;4.93;;;;;;;;;;2057012;28;20178;-62
2022/01/20 01:45:52;;;;;;;13.23;5.60;;;;;;;;;;2057054;28;20217;-61
2022/01/20 01:46:54;;;;;;;16.50;4.47;;;;;;;;;;2064485;28;20197;-63
2022/01/20 01:47:55;;;;;;;21.57;4.93;;;;;;;;;;2065340;28;20217;-62
2022/01/20 01:48:57;;;;;;;15.40;5.40;;;;;;;;;;2057445;28;20174;-61
2022/01/20 01:49:58;;;;;;;12.83;4.77;;;;;;;;;;2057248;28;20194;-60
2022/01/20 01:51:01;;;;;;;23.03;5.97;;;;;;;;;;2064416;28;20236;-62
2022/01/20 01:52:02;;;;;;;16.67;4.93;;;;;;;;;;2056898;28;20174;-61
2022/01/20 01:53:04;;;;;;;10.90;4.50;;;;;;;;;;2061871;28;20221;-61
2022/01/20 01:54:05;;;;;;;11.33;4.90;;;;;;;;;;2057396;28;20174;-63
2022/01/20 01:55:07;;;;;;;15.90;4.63;;;;;;;;;;2050809;28;20253;-63
2022/01/20 01:56:10;;;;;;;14.07;4.90;;;;;;;;;;2057292;28;20190;-61
2022/01/20 01:57:12;;;;;;;13.97;3.90;;;;;;;;;;2055813;28;20237;-61
2022/01/20 01:58:13;;;;;;;13.50;4.57;;;;;;;;;;2057269;28;20174;-61
2022/01/20 01:59:26;;;;;;;15.83;4.27;;;;;;;;;;2064463;28;20208;-63
2022/01/20 02:00:49;;;;;;;9.73;4.30;;;;;;;;;;2051495;28;20268;-61
2022/01/20 02:01:50;;;;;;;15.47;4.60;;;;;;;;;;2062865;28;20182;-65
2022/01/20 02:02:52;;;;;;;16.97;4.40;;;;;;;;;;2057041;28;20174;-63
2022/01/20 02:03:59;;;;;;;22.70;4.90;;;;;;;;;;2064403;28;20166;-63
2022/01/20 02:05:09;;;;;;;12.00;4.73;;;;;;;;;;2057782;28;20189;-62
2022/01/20 02:18:46;;;;;;;11.10;3.80;;;;;;;;;;2056823;28;20182;-62
2022/01/20 02:20:12;;;;;;;13.37;4.30;;;;;;;;;;2061572;28;20212;-63
2022/01/20 02:21:20;;;;;;;13.60;4.00;;;;;;;;;;2065894;28;20177;-61
2022/01/20 02:22:22;;;;;;;9.27;3.73;;;;;;;;;;2063535;28;20606;-61
2022/01/20 02:23:46;;;;;;;16.73;4.70;;;;;;;;;;2051613;28;20186;-60
2022/01/20 02:24:46;;;;;;;14.53;4.63;;;;;;;;;;2055776;28;20635;-61
2022/01/20 02:25:47;;;;;;;8.43;3.43;;;;;;;;;;2047576;29;20258;-61
2022/01/20 02:26:48;;;;;;;13.00;4.13;;;;;;;;;;2055674;28;20194;-59
2022/01/20 02:27:55;;;;;;;14.23;4.10;;;;;;;;;;2056540;28;20166;-61
2022/01/20 02:28:56;;;;;;;14.90;4.50;;;;;;;;;;2055597;28;20309;-62
2022/01/20 02:29:58;;;;;;;12.60;4.13;;;;;;;;;;2048086;28;20171;-64
2022/01/20 02:30:58;;;;;;;7.23;3.20;;;;;;;;;;2055559;28;20635;-61
2022/01/20 02:31:59;;;;;;;11.20;3.33;;;;;;;;;;2054787;28;20647;-61
2022/01/20 02:33:04;;;;;;;8.97;4.37;;;;;;;;;;2055563;28;20178;-62
2022/01/20 02:34:05;;;;;;;9.47;3.10;;;;;;;;;;2064093;28;20609;-61
2022/01/20 02:35:09;;;;;;;14.63;4.10;;;;;;;;;;2063914;28;20225;-62
2022/01/20 02:36:14;;;;;;;11.10;4.23;;;;;;;;;;2063876;28;20228;-61
2022/01/20 02:37:16;;;;;;;9.83;3.30;;;;;;;;;;2060971;28;20216;-61
2022/01/20 02:38:33;;;;;;;8.67;3.30;;;;;;;;;;2063272;28;20177;-62
2022/01/20 02:45:43;;;;;;;11.97;3.90;;;;;;;;;;2053332;28;20253;-63
2022/01/20 02:46:44;;;;;;;6.37;3.13;;;;;;;;;;2055252;28;20221;-62
2022/01/20 02:47:44;;;;;;;7.57;3.13;;;;;;;;;;2063698;28;20660;-61
2022/01/20 02:48:44;;;;;;;8.10;3.83;;;;;;;;;;2063807;28;20306;-62
2022/01/20 02:49:45;;;;;;;9.50;3.57;;;;;;;;;;2063330;28;20204;-62
2022/01/20 02:50:45;;;;;;;6.20;3.20;;;;;;;;;;2055857;28;20190;-60
2022/01/20 02:51:47;;;;;;;5.73;3.30;;;;;;;;;;2046280;29;20183;-63
2022/01/20 02:52:47;;;;;;;4.37;2.27;;;;;;;;;;2055814;28;20201;-61
2022/01/20 02:53:47;;;;;;;10.43;3.10;;;;;;;;;;2047303;28;20659;-60
2022/01/20 02:54:49;;;;;;;9.30;3.80;;;;;;;;;;2055356;28;20206;-62
2022/01/20 02:55:51;;;;;;;9.73;3.53;;;;;;;;;;2063823;28;20185;-61
2022/01/20 02:56:51;;;;;;;10.93;3.47;;;;;;;;;;2063300;28;20579;-62
2022/01/20 02:57:51;;;;;;;10.83;3.43;;;;;;;;;;2055974;28;20175;-61
2022/01/20 02:58:51;;;;;;;15.33;3.33;;;;;;;;;;2063304;28;20165;-62
2022/01/20 02:59:52;;;;;;;10.43;3.83;;;;;;;;;;2055685;28;20695;-62
2022/01/20 03:00:52;;;;;;;10.33;3.07;;;;;;;;;;2055747;28;20189;-61
2022/01/20 03:01:52;;;;;;;12.37;3.80;;;;;;;;;;2056022;28;20204;-62
2022/01/20 03:02:55;;;;;;;6.77;3.20;;;;;;;;;;2047621;29;20218;-62
2022/01/20 03:03:57;;;;;;;9.70;3.30;;;;;;;;;;2045067;28;20194;-62
2022/01/20 03:04:58;;;;;;;8.20;3.20;;;;;;;;;;2053758;28;20181;-62
2022/01/20 03:06:03;;;;;;;6.60;2.90;;;;;;;;;;2063588;28;20260;-61
2022/01/20 03:07:04;;;;;;;11.37;3.10;;;;;;;;;;2055711;28;20190;-62
2022/01/20 03:08:05;;;;;;;8.20;3.17;;;;;;;;;;2063930;28;20228;-60
2022/01/20 03:09:05;;;;;;;9.23;4.10;;;;;;;;;;2064161;28;20228;-61
2022/01/20 03:10:06;;;;;;;9.60;3.33;;;;;;;;;;2063543;28;20237;-61
2022/01/20 03:11:07;;;;;;;16.13;3.77;;;;;;;;;;2064332;28;20543;-60
2022/01/20 03:12:07;;;;;;;10.83;4.00;;;;;;;;;;2064896;28;20204;-61
2022/01/20 03:13:07;;;;;;;6.83;2.90;;;;;;;;;;2063683;28;20708;-61
2022/01/20 03:14:07;;;;;;;12.57;3.77;;;;;;;;;;2055637;28;20170;-61
2022/01/20 03:15:08;;;;;;;8.63;3.13;;;;;;;;;;2063250;28;20644;-62
2022/01/20 03:16:08;;;;;;;4.47;2.77;;;;;;;;;;2064118;28;20165;-61
2022/01/20 03:17:09;;;;;;;7.13;2.80;;;;;;;;;;2063219;28;20232;-61
2022/01/20 03:18:10;;;;;;;7.13;2.97;;;;;;;;;;2056029;28;20620;-61
2022/01/20 03:19:11;;;;;;;7.60;3.53;;;;;;;;;;2063597;28;20173;-62
2022/01/20 03:20:12;;;;;;;13.40;3.70;;;;;;;;;;2062078;28;20821;-62
2022/01/20 03:21:13;;;;;;;8.87;3.50;;;;;;;;;;2055597;28;20174;-62
2022/01/20 03:22:15;;;;;;;10.23;4.43;;;;;;;;;;2063901;28;20172;-62
2022/01/20 03:23:15;;;;;;;6.23;3.07;;;;;;;;;;2063209;28;20196;-61
2022/01/20 03:24:15;;;;;;;8.70;3.77;;;;;;;;;;2063508;28;20178;-61
2022/01/20 03:25:16;;;;;;;9.40;3.90;;;;;;;;;;2057488;28;20179;-62
2022/01/20 03:26:17;;;;;;;8.17;3.73;;;;;;;;;;2055484;28;20198;-61
2022/01/20 03:27:17;;;;;;;7.93;3.40;;;;;;;;;;2055577;28;20195;-60
2022/01/20 03:28:18;;;;;;;12.40;3.43;;;;;;;;;;2055842;28;20174;-62
2022/01/20 03:29:21;;;;;;;7.33;3.13;;;;;;;;;;2063765;28;20185;-60
2022/01/20 03:30:24;;;;;;;14.37;4.07;;;;;;;;;;2063800;28;20188;-60
2022/01/20 03:31:24;;;;;;;9.27;3.37;;;;;;;;;;2056023;28;20627;-61
2022/01/20 03:32:25;;;;;;;7.27;3.23;;;;;;;;;;2047985;28;20179;-61
2022/01/20 03:33:26;;;;;;;9.67;3.57;;;;;;;;;;2055504;28;20179;-60
2022/01/20 03:34:26;;;;;;;13.90;3.87;;;;;;;;;;2056718;28;20186;-61
2022/01/20 03:35:31;;;;;;;8.57;3.37;;;;;;;;;;2058434;28;20586;-62
2022/01/20 03:36:55;;;;;;;7.33;3.97;;;;;;;;;;2060269;28;20201;-60
2022/01/20 03:38:08;;;;;;;9.83;4.17;;;;;;;;;;2061501;28;20178;-61
2022/01/20 03:39:09;;;;;;;6.73;3.67;;;;;;;;;;2058803;28;20189;-59
2022/01/20 03:40:11;;;;;;;7.80;3.17;;;;;;;;;;2068151;28;20185;-60
2022/01/20 03:41:11;;;;;;;8.60;3.53;;;;;;;;;;2068727;28;20236;-60
2022/01/20 03:42:12;;;;;;;11.17;3.60;;;;;;;;;;2059906;28;20659;-59
2022/01/20 03:43:12;;;;;;;8.47;3.93;;;;;;;;;;2058695;28;20683;-60
2022/01/20 03:44:12;;;;;;;8.27;3.87;;;;;;;;;;2058741;28;20219;-58
2022/01/20 03:45:13;;;;;;;4.87;3.50;;;;;;;;;;2058985;28;20186;-61
2022/01/20 03:46:14;;;;;;;14.53;3.83;;;;;;;;;;2063823;28;20491;-58
2022/01/20 03:47:14;;;;;;;8.80;3.97;;;;;;;;;;2064150;28;20206;-62
2022/01/20 03:48:14;;;;;;;7.43;3.60;;;;;;;;;;2056070;28;20182;-61
2022/01/20 03:49:27;;;;;;;14.20;4.10;;;;;;;;;;2052979;28;20183;-60
2022/01/20 03:51:48;;;;;;;9.17;3.20;;;;;;;;;;2058282;28;20166;-61
2022/01/20 03:52:48;;;;;;;10.53;3.50;;;;;;;;;;2065205;28;20169;-63
2022/01/20 03:53:50;;;;;;;8.63;3.97;;;;;;;;;;2058048;28;20233;-61
2022/01/20 03:54:50;;;;;;;8.17;3.13;;;;;;;;;;2057618;28;20308;-62
2022/01/20 03:55:51;;;;;;;7.33;3.60;;;;;;;;;;2066246;28;20725;-61
2022/01/20 03:56:51;;;;;;;7.60;3.60;;;;;;;;;;2064712;28;20346;-61
2022/01/20 03:58:24;;;;;;;5.17;2.70;;;;;;;;;;2046227;29;20175;-61
2022/01/20 03:59:25;;;;;;;6.57;3.03;;;;;;;;;;2052937;28;20217;-61
2022/01/20 04:00:25;;;;;;;7.93;3.03;;;;;;;;;;2057139;28;20308;-61
2022/01/20 04:01:39;;;;;;;6.13;3.23;;;;;;;;;;2065577;28;20185;-62
2022/01/20 04:02:59;;;;;;;8.03;2.90;;;;;;;;;;2059937;28;20225;-62
2022/01/20 04:04:38;;;;;;;6.93;2.93;;;;;;;;;;2057918;28;20191;-61
2022/01/20 04:06:04;;;;;;;4.63;2.47;;;;;;;;;;2065619;28;20177;-61
2022/01/20 04:07:12;;;;;;;7.87;3.17;;;;;;;;;;2064796;28;20184;-61
2022/01/20 04:08:12;;;;;;;6.40;3.47;;;;;;;;;;2065504;28;20177;-62
2022/01/20 04:09:12;;;;;;;8.10;2.83;;;;;;;;;;2065164;28;20189;-59
2022/01/20 04:10:12;;;;;;;6.43;3.40;;;;;;;;;;2066154;28;20256;-62
2022/01/20 04:11:14;;;;;;;5.67;2.87;;;;;;;;;;2065145;28;20588;-62
2022/01/20 04:12:14;;;;;;;8.10;2.87;;;;;;;;;;2065440;28;20284;-61
2022/01/20 04:13:17;;;;;;;9.30;3.33;;;;;;;;;;2056740;28;20174;-60
2022/01/20 04:14:17;;;;;;;10.17;3.73;;;;;;;;;;2056126;28;20174;-60
2022/01/20 04:15:25;;;;;;;5.23;3.40;;;;;;;;;;2054881;28;20194;-60
2022/01/20 04:16:38;;;;;;;7.97;3.67;;;;;;;;;;2057858;28;20590;-60
2022/01/20 04:17:41;;;;;;;6.53;3.37;;;;;;;;;;2048667;28;20179;-61
2022/01/20 04:18:54;;;;;;;4.87;3.17;;;;;;;;;;2049881;28;20678;-63
2022/01/20 04:19:54;;;;;;;6.97;2.83;;;;;;;;;;2056030;28;20613;-60
2022/01/20 04:20:55;;;;;;;4.23;2.60;;;;;;;;;;2051213;28;20179;-62
2022/01/20 04:21:55;;;;;;;5.53;3.17;;;;;;;;;;2056803;28;20314;-60
2022/01/20 04:22:55;;;;;;;5.27;3.57;;;;;;;;;;2057041;28;20178;-61
2022/01/20 04:23:57;;;;;;;8.70;3.20;;;;;;;;;;2060461;28;20260;-62
2022/01/20 04:24:57;;;;;;;7.30;3.87;;;;;;;;;;2057276;28;20279;-63
2022/01/20 04:25:58;;;;;;;7.40;3.27;;;;;;;;;;2056784;28;20206;-61
2022/01/20 04:26:58;;;;;;;5.20;3.77;;;;;;;;;;2056665;28;20166;-61
2022/01/20 04:27:59;;;;;;;6.57;3.50;;;;;;;;;;2049068;28;20201;-62
2022/01/20 04:28:59;;;;;;;5.80;3.27;;;;;;;;;;2055772;28;20701;-63
2022/01/20 04:30:03;;;;;;;6.23;3.97;;;;;;;;;;2056643;28;20170;-62
2022/01/20 04:31:04;;;;;;;8.90;3.40;;;;;;;;;;2057263;28;20178;-62
2022/01/20 04:32:04;;;;;;;3.53;2.77;;;;;;;;;;2056291;28;20208;-61
2022/01/20 04:33:05;;;;;;;5.53;3.13;;;;;;;;;;2065633;28;20197;-62
2022/01/20 04:34:07;;;;;;;5.40;2.50;;;;;;;;;;2065100;28;20165;-61
2022/01/20 04:35:07;;;;;;;3.77;2.33;;;;;;;;;;2056555;28;20170;-64
2022/01/20 04:36:08;;;;;;;4.13;2.20;;;;;;;;;;2056767;28;20557;-62
2022/01/20 04:37:08;;;;;;;3.53;1.80;;;;;;;;;;2078805;23;20686;-61
2022/01/20 04:38:09;;;;;;;5.63;2.30;;;;;;;;;;2080971;28;20192;-62
2022/01/20 04:39:13;;;;;;;4.77;2.40;;;;;;;;;;2069290;28;20173;-62
2022/01/20 04:40:14;;;;;;;4.30;2.10;;;;;;;;;;2072213;28;20165;-61
2022/01/20 04:41:15;;;;;;;3.43;2.20;;;;;;;;;;2077095;28;20249;-62
2022/01/20 04:42:16;;;;;;;6.30;2.70;;;;;;;;;;2072336;28;20196;-63
2022/01/20 04:43:17;;;;;;;5.17;2.63;;;;;;;;;;2064678;28;20185;-62
2022/01/20 04:44:35;;;;;;;5.20;2.63;;;;;;;;;;2064162;28;20228;-62
2022/01/20 04:45:43;;;;;;;6.80;2.17;;;;;;;;;;2066191;28;20243;-60
2022/01/20 04:47:15;;;;;;;2.97;2.27;;;;;;;;;;2058551;28;20631;-57
2022/01/20 04:57:22;;;;;;;8.83;4.13;;;;;;;;;;2072378;28;20291;-62
2022/01/20 04:58:23;;;;;;;7.60;4.20;;;;;;;;;;2072649;28;20169;-55
2022/01/20 04:59:24;;;;;;;8.33;3.53;;;;;;;;;;2070967;28;20806;-62
2022/01/20 05:00:24;;;;;;;5.87;3.17;;;;;;;;;;2064131;28;20193;-63
2022/01/20 05:01:46;;;;;;;8.97;3.93;;;;;;;;;;2073125;28;20169;-62
2022/01/20 05:02:54;;;;;;;8.40;3.33;;;;;;;;;;2073092;28;20255;-66
2022/01/20 05:03:56;;;;;;;15.00;4.07;;;;;;;;;;2063861;28;20284;-61
2022/01/20 05:05:26;;;;;;;18.73;4.27;;;;;;;;;;2067517;28;20200;-62
2022/01/20 05:06:34;;;;;;;10.07;4.53;;;;;;;;;;2072111;28;20614;-64
2022/01/20 05:07:35;;;;;;;11.33;5.00;;;;;;;;;;2064061;28;20173;-64
2022/01/20 05:08:36;;;;;;;10.00;5.10;;;;;;;;;;2059753;28;20166;-62
2022/01/20 05:09:38;;;;;;;8.90;4.13;;;;;;;;;;2064316;28;20264;-64
2022/01/20 05:10:39;;;;;;;11.93;4.80;;;;;;;;;;2064317;28;20170;-61
2022/01/20 05:11:43;;;;;;;15.27;6.30;;;;;;;;;;2064575;28;20177;-62
2022/01/20 05:13:54;;;;;;;11.17;5.63;;;;;;;;;;2072543;28;20161;-61
2022/01/20 05:14:54;;;;;;;25.73;6.93;;;;;;;;;;2068558;28;20677;-62
2022/01/20 05:15:55;;;;;;;11.70;5.53;;;;;;;;;;2064548;28;20173;-62
2022/01/20 05:16:55;;;;;;;16.70;6.23;;;;;;;;;;2063642;28;20252;-60
2022/01/20 05:17:56;;;;;;;11.63;6.00;;;;;;;;;;2072469;28;20185;-62
2022/01/20 05:18:56;;;;;;;10.63;4.93;;;;;;;;;;2072812;28;20283;-64
2022/01/20 05:19:56;;;;;;;15.97;6.27;;;;;;;;;;2073605;28;20230;-56
2022/01/20 05:20:57;;;;;;;17.47;7.23;;;;;;;;;;2064221;28;20185;-62
2022/01/20 05:21:57;;;;;;;14.40;6.50;;;;;;;;;;2064559;28;20185;-62
2022/01/20 05:23:03;;;;;;;16.80;5.43;;;;;;;;;;2072088;28;20260;-62
2022/01/20 05:24:03;;;;;;;11.27;5.07;;;;;;;;;;2064508;28;20177;-62
2022/01/20 05:25:04;;;;;;;15.50;5.10;;;;;;;;;;2075990;28;20172;-63
2022/01/20 05:26:04;;;;;;;13.20;5.00;;;;;;;;;;2071968;28;20181;-63
2022/01/20 05:27:05;;;;;;;21.00;4.87;;;;;;;;;;2064006;28;20693;-62
2022/01/20 05:28:05;;;;;;;15.43;5.23;;;;;;;;;;2072976;28;20161;-63
2022/01/20 05:29:05;;;;;;;11.43;4.30;;;;;;;;;;2072044;28;20315;-64
2022/01/20 05:30:06;;;;;;;10.40;5.07;;;;;;;;;;2072947;28;20183;-63
2022/01/20 05:31:07;;;;;;;11.27;4.43;;;;;;;;;;2063660;28;20173;-62
2022/01/20 05:32:24;;;;;;;15.27;6.63;;;;;;;;;;2065405;28;20174;-63
2022/01/20 05:33:25;;;;;;;11.17;5.60;;;;;;;;;;2056357;28;20182;-63
2022/01/20 05:34:25;;;;;;;12.43;5.00;;;;;;;;;;2063603;28;20232;-62
2022/01/20 05:35:27;;;;;;;13.37;4.47;;;;;;;;;;2072914;28;20243;-63
2022/01/20 05:36:27;;;;;;;10.03;3.50;;;;;;;;;;2063651;28;20174;-62
2022/01/20 05:37:28;;;;;;;12.23;4.70;;;;;;;;;;2062602;28;20201;-63
2022/01/20 05:38:28;;;;;;;14.37;4.07;;;;;;;;;;2064457;28;20210;-63
2022/01/20 05:39:30;;;;;;;11.17;4.20;;;;;;;;;;2072034;28;20886;-62
2022/01/20 05:40:30;;;;;;;7.87;3.10;;;;;;;;;;2062580;28;20205;-64
2022/01/20 05:41:32;;;;;;;6.90;3.50;;;;;;;;;;2071837;28;20169;-63
2022/01/20 05:42:40;;;;;;;11.70;3.83;;;;;;;;;;2067817;28;20173;-64
2022/01/20 05:43:44;;;;;;;13.37;3.80;;;;;;;;;;2064147;28;20525;-62
2022/01/20 05:44:49;;;;;;;12.63;4.20;;;;;;;;;;2066407;28;20169;-63
2022/01/20 05:45:50;;;;;;;10.53;3.90;;;;;;;;;;2072895;28;20180;-59
2022/01/20 05:46:53;;;;;;;13.27;4.03;;;;;;;;;;2072643;28;20189;-62
2022/01/20 05:48:18;;;;;;;9.57;3.60;;;;;;;;;;2073406;28;20625;-63
2022/01/20 05:49:37;;;;;;;10.80;4.17;;;;;;;;;;2065514;28;20396;-63
2022/01/20 05:50:39;;;;;;;10.13;4.33;;;;;;;;;;2072561;28;20410;-62
2022/01/20 05:51:40;;;;;;;16.57;4.73;;;;;;;;;;2076181;28;20188;-63
2022/01/20 05:52:43;;;;;;;14.47;3.80;;;;;;;;;;2067728;28;20173;-64
2022/01/20 05:53:45;;;;;;;18.27;4.80;;;;;;;;;;2068424;28;20178;-64
2022/01/20 05:54:45;;;;;;;11.90;4.83;;;;;;;;;;2066398;28;20533;-62
2022/01/20 05:55:46;;;;;;;11.77;4.20;;;;;;;;;;2070236;28;20197;-63
2022/01/20 05:56:46;;;;;;;13.73;5.47;;;;;;;;;;2060639;28;20736;-62
2022/01/20 05:57:46;;;;;;;12.13;5.27;;;;;;;;;;2070540;28;20177;-63
2022/01/20 05:58:48;;;;;;;18.77;5.90;;;;;;;;;;2075268;28;20703;-62
2022/01/20 05:59:50;;;;;;;12.50;5.27;;;;;;;;;;2074982;28;20917;-62
2022/01/20 06:00:51;;;;;;;20.70;6.37;;;;;;;;;;2065442;28;20169;-63
2022/01/20 06:01:55;;;;;;;13.93;4.47;;;;;;;;;;2059361;28;20587;-62
2022/01/20 06:04:14;;;;;;;13.23;4.47;;;;;;;;;;2063209;28;20174;-62
2022/01/20 06:05:15;;;;;;;14.43;4.17;;;;;;;;;;2066559;28;20169;-62
2022/01/20 06:06:15;;;;;;;10.30;3.80;;;;;;;;;;2065392;28;20245;-62
2022/01/20 06:07:19;;;;;;;14.57;4.80;;;;;;;;;;2071602;28;20568;-64
2022/01/20 06:08:20;;;;;;;12.47;5.10;;;;;;;;;;2075360;28;20204;-64
2022/01/20 06:09:21;;;;;;;19.30;4.47;;;;;;;;;;2069385;28;20177;-62
2022/01/20 06:10:22;;;;;;;11.13;4.37;;;;;;;;;;2074871;28;20173;-63
2022/01/20 06:11:22;;;;;;;13.80;3.90;;;;;;;;;;2064781;28;20657;-64
2022/01/20 06:12:25;;;;;;;8.97;3.80;;;;;;;;;;2064329;28;20658;-62
2022/01/20 06:13:26;;;;;;;10.27;4.60;;;;;;;;;;2064752;28;20169;-61
2022/01/20 06:14:28;;;;;;;12.97;4.80;;;;;;;;;;2072774;28;20189;-62
2022/01/20 06:15:29;;;;;;;12.20;4.67;;;;;;;;;;2079924;28;20676;-61
2022/01/20 06:16:29;;;;;;;10.17;4.03;;;;;;;;;;2071624;28;20169;-62
2022/01/20 06:17:33;;;;;;;13.07;4.97;;;;;;;;;;2070849;28;20197;-62
2022/01/20 06:18:40;;;;;;;13.50;4.33;;;;;;;;;;2072830;28;20165;-62
2022/01/20 06:19:42;;;;;;;18.77;5.57;;;;;;;;;;2077586;28;20481;-62
2022/01/20 06:20:43;;;;;;;11.00;4.03;;;;;;;;;;2058011;28;20166;-63
2022/01/20 06:21:45;;;;;;;12.57;3.97;;;;;;;;;;2058497;28;20201;-61
2022/01/20 06:22:46;;;;;;;15.10;3.97;;;;;;;;;;2072624;28;20256;-61
2022/01/20 06:23:47;;;;;;;17.77;4.37;;;;;;;;;;2072629;28;20910;-65
2022/01/20 06:24:47;;;;;;;11.27;3.93;;;;;;;;;;2064715;28;20182;-62
2022/01/20 06:25:47;;;;;;;10.40;4.07;;;;;;;;;;2054998;28;20240;-62
2022/01/20 06:26:48;;;;;;;12.83;4.53;;;;;;;;;;2061542;28;20184;-62
2022/01/20 06:27:49;;;;;;;12.80;4.40;;;;;;;;;;2058478;28;20186;-60
2022/01/20 06:28:49;;;;;;;9.10;3.67;;;;;;;;;;2066158;28;20185;-63
2022/01/20 06:29:49;;;;;;;9.50;4.27;;;;;;;;;;2072593;28;20173;-56
2022/01/20 06:30:50;;;;;;;11.87;4.00;;;;;;;;;;2064476;28;20182;-62
2022/01/20 06:31:50;;;;;;;22.63;5.33;;;;;;;;;;2062147;28;20169;-64
2022/01/20 06:32:51;;;;;;;9.07;4.10;;;;;;;;;;2058554;28;20182;-63
2022/01/20 06:33:59;;;;;;;14.83;4.80;;;;;;;;;;2073753;28;20661;-63
2022/01/20 06:35:00;;;;;;;13.53;5.20;;;;;;;;;;2072384;28;20177;-64
2022/01/20 06:36:00;;;;;;;9.93;4.93;;;;;;;;;;2069647;28;20208;-63
2022/01/20 06:37:02;;;;;;;15.40;5.10;;;;;;;;;;2077912;28;20227;-60
2022/01/20 06:38:03;;;;;;;14.17;5.10;;;;;;;;;;2066590;28;20653;-63
2022/01/20 06:39:04;;;;;;;14.20;5.67;;;;;;;;;;2075091;28;20252;-63
2022/01/20 06:40:07;;;;;;;13.83;4.97;;;;;;;;;;2077603;28;20167;-63
2022/01/20 06:41:10;;;;;;;19.13;5.77;;;;;;;;;;2071940;28;20585;-63
2022/01/20 06:42:10;;;;;;;13.80;5.67;;;;;;;;;;2067228;28;20170;-63
2022/01/20 06:43:10;;;;;;;9.60;4.53;;;;;;;;;;2076601;28;20677;-63
2022/01/20 06:44:11;;;;;;;14.17;5.03;;;;;;;;;;2068169;28;20261;-63
2022/01/20 06:45:13;;;;;;;13.13;5.73;;;;;;;;;;2075152;28;20252;-64
2022/01/20 06:46:14;;;;;;;13.57;4.97;;;;;;;;;;2073052;28;20177;-63
2022/01/20 06:47:25;;;;;;;15.87;5.70;;;;;;;;;;2066445;28;20188;-63
2022/01/20 06:48:25;;;;;;;14.73;5.00;;;;;;;;;;2073702;28;20169;-64
2022/01/20 06:49:45;;;;;;;13.37;5.37;;;;;;;;;;2074002;28;20181;-63
2022/01/20 06:50:45;;;;;;;12.77;4.43;;;;;;;;;;2071582;28;20165;-62
2022/01/20 06:51:47;;;;;;;11.67;4.43;;;;;;;;;;2061096;28;20182;-63
2022/01/20 06:52:47;;;;;;;10.77;5.53;;;;;;;;;;2072889;28;20165;-63
2022/01/20 06:53:47;;;;;;;11.53;6.10;;;;;;;;;;2068298;28;20165;-64
2022/01/20 06:54:48;;;;;;;11.40;4.93;;;;;;;;;;2070663;28;20184;-65
2022/01/20 06:55:49;;;;;;;17.97;6.07;;;;;;;;;;2074324;28;20280;-65
2022/01/20 06:56:49;;;;;;;14.40;5.67;;;;;;;;;;2063579;28;20704;-62
2022/01/20 06:57:50;;;;;;;16.47;6.33;;;;;;;;;;2059164;28;20185;-58
2022/01/20 06:58:52;;;;;;;17.43;5.93;;;;;;;;;;2064511;28;20165;-63
2022/01/20 06:59:52;;;;;;;14.00;5.83;;;;;;;;;;2055555;28;20551;-62
2022/01/20 07:00:52;;;;;;;16.13;5.73;;;;;;;;;;2063895;28;20177;-62
2022/01/20 07:01:53;;;;;;;19.10;5.37;;;;;;;;;;2067550;28;20181;-61
2022/01/20 07:03:00;;;;;;;12.23;4.77;;;;;;;;;;2064269;28;20213;-64
2022/01/20 07:04:00;;;;;;;14.77;5.83;;;;;;;;;;2059329;28;20169;-61
2022/01/20 07:05:01;;;;;;;18.03;5.27;;;;;;;;;;2068501;28;20166;-64
2022/01/20 07:06:01;;;;;;;16.43;5.00;;;;;;;;;;2066909;28;20178;-61
2022/01/20 07:07:05;;;;;;;10.73;5.07;;;;;;;;;;2070556;28;20283;-63
2022/01/20 07:08:32;;;;;;;10.80;4.50;;;;;;;;;;2066628;28;20176;-62
2022/01/20 07:09:33;;;;;;;14.33;5.70;;;;;;;;;;2072175;28;20184;-61
2022/01/20 07:10:38;;;;;;;12.43;5.70;;;;;;;;;;2064322;28;20582;-62
2022/01/20 07:11:39;;;;;;;14.00;4.60;;;;;;;;;;2059267;28;20169;-62
2022/01/20 07:12:41;;;;;;;11.50;4.43;;;;;;;;;;2071247;28;20203;-61
2022/01/20 07:13:42;;;;;;;12.43;4.90;;;;;;;;;;2071844;28;20916;-62
2022/01/20 07:14:42;;;;;;;8.80;4.33;;;;;;;;;;2072023;28;20248;-61
2022/01/20 07:15:42;;;;;;;11.80;4.17;;;;;;;;;;2071335;28;20696;-62
2022/01/20 07:16:43;;;;;;;9.73;4.50;;;;;;;;;;2071866;28;20215;-62